Time;durP1;ratioP1;P1;durP2;ratioP2;P2;SDS_P1;SDS_P2;PMS_P1;PMS_P2;Temp;Humidity;BMP_temperature;BMP_pressure;BME280_temperature;BME280_humidity;BME280_pressure;Samples;Min_cycle;Max_cycle;Signal;HPM_P1;HPM_P2
2021/09/20 00:00:12;;;;;;;9.17;8.13;;;;;;;12.09;79.66;101027.25;694539;28;1159;-52
2021/09/20 00:00:33;;;;;;;9.13;8.15;;;;;;;12.08;80.22;101028.13;694274;28;1318;-52
2021/09/20 00:00:54;;;;;;;9.77;8.77;;;;;;;12.03;79.77;101024.66;695168;28;4441;-52
2021/09/20 00:01:14;;;;;;;9.80;8.80;;;;;;;12.01;79.14;101026.44;698756;28;1683;-53
2021/09/20 00:01:35;;;;;;;9.60;8.60;;;;;;;11.98;79.83;101023.84;696747;28;1166;-57
2021/09/20 00:01:57;;;;;;;9.32;8.40;;;;;;;11.97;79.75;101028.19;697514;28;1254;-55
2021/09/20 00:02:18;;;;;;;9.15;8.15;;;;;;;12.02;79.85;101030.81;696599;28;4267;-53
2021/09/20 00:02:38;;;;;;;10.00;8.73;;;;;;;11.99;79.86;101025.56;696252;28;3573;-53
2021/09/20 00:02:59;;;;;;;9.40;8.33;;;;;;;12.03;80.03;101029.91;697153;28;1200;-54
2021/09/20 00:03:19;;;;;;;9.13;8.23;;;;;;;12.08;80.09;101025.50;696369;28;1566;-53
2021/09/20 00:03:39;;;;;;;10.20;8.77;;;;;;;12.11;80.63;101028.09;696244;28;1090;-53
2021/09/20 00:04:00;;;;;;;9.75;8.75;;;;;;;12.02;79.30;101025.56;696963;28;4321;-52
2021/09/20 00:04:20;;;;;;;9.40;8.40;;;;;;;11.91;78.41;101029.06;697424;28;1332;-52
2021/09/20 00:04:43;;;;;;;9.60;8.60;;;;;;;11.91;79.62;101034.28;696912;28;1006;-53
2021/09/20 00:05:05;;;;;;;9.63;8.55;;;;;;;11.98;80.07;101029.06;698260;28;1511;-54
2021/09/20 00:05:25;;;;;;;9.63;8.63;;;;;;;12.02;80.49;101028.19;697158;28;1445;-53
2021/09/20 00:05:46;;;;;;;10.20;8.63;;;;;;;12.04;80.75;101029.03;697989;28;1332;-52
2021/09/20 00:06:06;;;;;;;9.93;8.67;;;;;;;12.07;79.91;101029.00;698388;28;1260;-53
2021/09/20 00:06:26;;;;;;;9.43;8.50;;;;;;;11.99;77.41;101025.56;697785;28;1305;-56
2021/09/20 00:06:49;;;;;;;9.40;8.40;;;;;;;11.92;77.45;101027.28;695756;28;4410;-52
2021/09/20 00:07:10;;;;;;;9.65;8.60;;;;;;;11.87;78.74;101034.31;697562;28;1141;-54
2021/09/20 00:07:30;;;;;;;9.57;8.57;;;;;;;11.89;80.09;101033.44;698188;28;1257;-51
2021/09/20 00:07:50;;;;;;;10.15;9.07;;;;;;;11.83;80.12;101030.84;696141;28;1077;-53
2021/09/20 00:08:11;;;;;;;10.20;8.97;;;;;;;11.79;80.14;101031.72;697453;28;1339;-56
2021/09/20 00:08:31;;;;;;;10.20;8.70;;;;;;;11.85;80.03;101033.44;697073;28;1445;-54
2021/09/20 00:08:52;;;;;;;9.63;8.63;;;;;;;11.88;80.53;101034.31;696725;28;1312;-54
2021/09/20 00:09:12;;;;;;;10.25;8.75;;;;;;;11.94;80.47;101033.44;697919;28;1246;-53
2021/09/20 00:09:33;;;;;;;10.23;8.77;;;;;;;11.93;80.54;101035.16;697407;28;1269;-54
2021/09/20 00:09:53;;;;;;;10.30;8.77;;;;;;;11.97;80.30;101035.19;694988;28;4439;-53
2021/09/20 00:10:14;;;;;;;10.13;8.90;;;;;;;11.88;79.04;101020.31;694418;28;1233;-52
2021/09/20 00:10:34;;;;;;;9.43;8.50;;;;;;;11.90;80.38;101034.31;694556;28;1183;-54
2021/09/20 00:10:54;;;;;;;9.17;8.27;;;;;;;11.95;80.30;101031.69;693548;28;3546;-57
2021/09/20 00:11:15;;;;;;;9.35;8.27;;;;;;;11.85;78.77;101028.19;694442;28;3590;-56
2021/09/20 00:11:35;;;;;;;10.27;8.83;;;;;;;11.73;79.02;101032.63;694409;28;1035;-53
2021/09/20 00:11:56;;;;;;;10.38;8.75;;;;;;;11.67;78.21;101035.28;693904;28;1280;-51
2021/09/20 00:12:16;;;;;;;10.13;8.43;;;;;;;11.61;78.53;101031.78;694377;28;1632;-54
2021/09/20 00:12:37;;;;;;;9.20;8.27;;;;;;;11.59;78.73;101029.19;694154;28;1766;-52
2021/09/20 00:12:57;;;;;;;9.82;8.73;;;;;;;11.59;79.52;101024.81;695365;28;4440;-55
2021/09/20 00:13:18;;;;;;;10.43;8.63;;;;;;;11.60;79.81;101038.75;697727;28;1581;-53
2021/09/20 00:13:38;;;;;;;10.63;8.67;;;;;;;11.62;80.80;101034.41;697926;28;1221;-52
2021/09/20 00:13:59;;;;;;;10.52;8.70;;;;;;;11.63;81.13;101030.03;698619;28;1126;-53
2021/09/20 00:14:19;;;;;;;9.53;8.53;;;;;;;11.69;81.31;101035.25;698689;28;1249;-53
2021/09/20 00:14:40;;;;;;;10.00;8.70;;;;;;;11.77;81.36;101033.50;698513;28;1153;-51
2021/09/20 00:15:00;;;;;;;9.80;8.70;;;;;;;11.75;80.72;101028.25;698463;28;1506;-54
2021/09/20 00:15:21;;;;;;;10.30;8.60;;;;;;;11.74;81.12;101036.09;698091;28;3097;-51
2021/09/20 00:15:41;;;;;;;9.95;8.70;;;;;;;11.74;80.92;101031.75;697277;28;3737;-51
2021/09/20 00:16:01;;;;;;;9.70;8.70;;;;;;;11.70;80.40;101036.97;697868;28;4429;-53
2021/09/20 00:16:22;;;;;;;9.73;8.73;;;;;;;11.68;81.26;101037.00;698427;28;1321;-52
2021/09/20 00:16:42;;;;;;;10.77;8.98;;;;;;;11.75;81.00;101035.22;694347;28;3042;-54
2021/09/20 00:17:03;;;;;;;9.87;8.87;;;;;;;11.75;80.97;101035.22;695238;28;1486;-53
2021/09/20 00:17:23;;;;;;;9.38;8.48;;;;;;;11.66;80.62;101035.25;697350;28;1360;-52
2021/09/20 00:17:43;;;;;;;9.37;8.37;;;;;;;11.70;81.22;101039.59;697611;28;1411;-52
2021/09/20 00:18:04;;;;;;;10.50;8.63;;;;;;;11.73;81.50;101029.13;698011;28;1155;-56
2021/09/20 00:18:24;;;;;;;11.03;8.93;;;;;;;11.67;81.60;101031.75;698201;28;1024;-53
2021/09/20 00:18:44;;;;;;;9.43;8.43;;;;;;;11.62;81.44;101030.94;698345;28;4579;-56
2021/09/20 00:19:07;;;;;;;9.93;8.63;;;;;;;11.67;81.79;101031.75;694816;28;1181;-52
2021/09/20 00:19:27;;;;;;;10.02;9.02;;;;;;;11.63;80.99;101025.69;695397;28;1265;-54
2021/09/20 00:19:47;;;;;;;10.45;8.68;;;;;;;11.59;80.68;101030.03;694992;28;3903;-55
2021/09/20 00:20:10;;;;;;;10.40;8.87;;;;;;;11.62;81.69;101028.31;695326;28;1158;-52
2021/09/20 00:20:31;;;;;;;10.10;8.88;;;;;;;11.57;80.77;101029.19;694867;28;1261;-52
2021/09/20 00:20:51;;;;;;;10.40;8.70;;;;;;;11.59;81.21;101032.66;694259;28;1110;-55
2021/09/20 00:21:11;;;;;;;10.15;9.05;;;;;;;11.62;81.72;101023.06;695693;28;1261;-55
2021/09/20 00:21:32;;;;;;;10.63;8.80;;;;;;;11.66;81.68;101030.91;691536;28;1040;-54
2021/09/20 00:21:53;;;;;;;10.25;8.55;;;;;;;11.70;81.66;101030.00;691157;28;4311;-55
2021/09/20 00:22:13;;;;;;;10.67;8.97;;;;;;;11.73;81.01;101032.63;692550;28;1258;-57
2021/09/20 00:22:35;;;;;;;10.10;8.60;;;;;;;11.61;80.04;101027.41;692165;28;1144;-54
2021/09/20 00:22:55;;;;;;;9.82;8.20;;;;;;;11.51;79.48;101029.19;694036;28;1084;-53
2021/09/20 00:23:15;;;;;;;9.60;8.53;;;;;;;11.44;80.30;101031.81;695320;28;1254;-53
2021/09/20 00:23:36;;;;;;;10.13;9.03;;;;;;;11.37;80.32;101031.84;695213;28;1122;-53
2021/09/20 00:23:56;;;;;;;9.98;8.68;;;;;;;11.31;80.58;101028.38;695689;28;2189;-54
2021/09/20 00:24:16;;;;;;;9.40;8.50;;;;;;;11.25;80.77;101030.13;695160;28;3883;-53
2021/09/20 00:24:37;;;;;;;9.70;8.70;;;;;;;11.27;81.50;101030.13;695566;28;1139;-53
2021/09/20 00:24:58;;;;;;;10.65;9.07;;;;;;;11.27;82.20;101034.47;695351;28;4490;-53
2021/09/20 00:25:18;;;;;;;10.48;8.95;;;;;;;11.27;82.93;101031.88;694973;28;2020;-56
2021/09/20 00:25:39;;;;;;;9.83;8.83;;;;;;;11.29;82.94;101032.75;694252;28;1120;-54
2021/09/20 00:25:59;;;;;;;10.40;8.95;;;;;;;11.35;82.59;101028.38;695283;28;1274;-52
2021/09/20 00:26:19;;;;;;;10.17;9.03;;;;;;;11.42;82.34;101034.44;695964;28;1201;-54
2021/09/20 00:26:40;;;;;;;9.88;8.88;;;;;;;11.45;82.14;101030.94;695580;28;1436;-52
2021/09/20 00:27:00;;;;;;;9.97;8.80;;;;;;;11.40;81.42;101033.59;695612;28;1361;-55
2021/09/20 00:27:21;;;;;;;9.75;8.75;;;;;;;11.44;81.81;101034.44;696180;28;1095;-55
2021/09/20 00:27:41;;;;;;;10.33;9.17;;;;;;;11.53;82.28;101035.31;689372;28;1251;-54
2021/09/20 00:28:01;;;;;;;10.47;9.27;;;;;;;11.47;81.45;101035.31;692307;28;4277;-52
2021/09/20 00:28:22;;;;;;;10.40;9.00;;;;;;;11.36;80.74;101032.72;695489;28;3599;-54
2021/09/20 00:28:42;;;;;;;10.02;8.68;;;;;;;11.41;81.85;101036.19;695000;28;1345;-54
2021/09/20 00:29:03;;;;;;;9.80;8.60;;;;;;;11.44;82.29;101031.81;695752;28;1640;-54
2021/09/20 00:29:23;;;;;;;10.23;9.13;;;;;;;11.48;82.16;101034.44;695761;28;1447;-52
2021/09/20 00:29:45;;;;;;;10.25;9.15;;;;;;;11.48;82.10;101029.22;694737;28;1435;-55
2021/09/20 00:30:07;;;;;;;10.15;8.70;;;;;;;11.50;81.97;101022.22;695339;28;1145;-52
2021/09/20 00:30:30;;;;;;;10.27;9.00;;;;;;;11.51;81.96;101026.56;695490;28;1388;-54
2021/09/20 00:30:50;;;;;;;9.60;8.60;;;;;;;11.57;81.84;101028.31;694467;28;4492;-52
2021/09/20 00:31:11;;;;;;;9.50;8.50;;;;;;;11.62;81.56;101028.31;695045;28;1995;-55
2021/09/20 00:31:31;;;;;;;9.80;8.80;;;;;;;11.61;81.20;101027.41;695713;28;1146;-53
2021/09/20 00:31:51;;;;;;;9.73;8.73;;;;;;;11.70;81.57;101032.63;694984;28;1040;-52
2021/09/20 00:32:12;;;;;;;10.10;9.03;;;;;;;11.75;81.57;101038.75;695857;28;1127;-51
2021/09/20 00:32:33;;;;;;;9.93;8.93;;;;;;;11.67;80.61;101030.03;694756;28;3433;-52
2021/09/20 00:32:56;;;;;;;9.80;8.80;;;;;;;11.57;80.76;101030.91;695066;28;1339;-54
2021/09/20 00:33:16;;;;;;;9.65;8.65;;;;;;;11.53;81.73;101026.56;696064;28;1290;-54
2021/09/20 00:33:37;;;;;;;10.02;8.80;;;;;;;11.47;81.96;101030.06;695657;28;1204;-53
2021/09/20 00:33:57;;;;;;;9.97;8.93;;;;;;;11.42;82.22;101031.81;694740;28;4479;-52
2021/09/20 00:34:17;;;;;;;10.60;9.18;;;;;;;11.41;82.02;101027.50;695087;28;1229;-53
2021/09/20 00:34:38;;;;;;;10.20;8.97;;;;;;;11.43;82.14;101033.56;695681;28;1264;-52
2021/09/20 00:34:59;;;;;;;10.25;9.13;;;;;;;11.38;82.02;101035.31;695893;28;1110;-54
2021/09/20 00:35:19;;;;;;;9.93;8.93;;;;;;;11.34;82.43;101028.34;696087;28;1245;-54
2021/09/20 00:35:39;;;;;;;10.07;9.07;;;;;;;11.30;82.19;101029.22;695526;28;1319;-52
2021/09/20 00:36:00;;;;;;;9.90;8.90;;;;;;;11.36;82.95;101031.84;695858;28;1435;-51
2021/09/20 00:36:21;;;;;;;10.48;8.60;;;;;;;11.40;81.88;101026.59;695712;28;1304;-55
2021/09/20 00:36:42;;;;;;;10.87;9.30;;;;;;;11.27;81.97;101027.53;695646;28;1102;-52
2021/09/20 00:37:03;;;;;;;11.25;9.30;;;;;;;11.19;81.31;101022.28;695124;28;4604;-51
2021/09/20 00:37:23;;;;;;;10.63;9.00;;;;;;;11.24;82.06;101025.78;695390;28;1550;-55
2021/09/20 00:37:43;;;;;;;9.70;8.70;;;;;;;11.31;82.54;101028.38;695251;28;1202;-52
2021/09/20 00:38:04;;;;;;;9.77;8.80;;;;;;;11.38;82.56;101030.09;695202;28;1128;-52
2021/09/20 00:38:24;;;;;;;10.60;9.20;;;;;;;11.36;82.70;101027.47;695606;28;1266;-53
2021/09/20 00:38:45;;;;;;;10.35;9.25;;;;;;;11.29;82.33;101024.91;694787;28;1295;-57
2021/09/20 00:39:05;;;;;;;9.90;8.90;;;;;;;11.25;81.09;101027.50;695193;28;3509;-54
2021/09/20 00:39:25;;;;;;;10.00;8.90;;;;;;;11.16;81.20;101019.69;695942;28;1099;-52
2021/09/20 00:39:46;;;;;;;10.65;9.02;;;;;;;11.07;82.32;101024.91;695047;28;4486;-52
2021/09/20 00:40:07;;;;;;;10.90;9.07;;;;;;;11.03;81.71;101028.41;695599;28;1202;-52
2021/09/20 00:40:27;;;;;;;9.90;8.65;;;;;;;11.07;83.25;101031.00;695526;28;1175;-51
2021/09/20 00:40:48;;;;;;;10.23;9.18;;;;;;;11.02;82.76;101024.94;695212;28;1075;-52
2021/09/20 00:41:08;;;;;;;10.37;9.37;;;;;;;11.03;82.89;101029.25;696079;28;3482;-55
2021/09/20 00:41:29;;;;;;;10.63;9.52;;;;;;;11.09;82.95;101028.41;695170;28;3900;-56
2021/09/20 00:41:49;;;;;;;10.30;9.20;;;;;;;11.20;83.03;101023.16;695071;28;1258;-51
2021/09/20 00:42:10;;;;;;;10.27;9.27;;;;;;;11.23;82.62;101026.63;695290;28;1199;-54
2021/09/20 00:42:30;;;;;;;10.10;9.07;;;;;;;11.23;83.06;101026.63;694767;28;1309;-53
2021/09/20 00:42:51;;;;;;;11.05;9.30;;;;;;;11.18;83.16;101020.53;694646;28;4508;-53
2021/09/20 00:43:11;;;;;;;11.32;8.90;;;;;;;11.22;82.97;101024.03;695794;28;1525;-54
2021/09/20 00:43:32;;;;;;;11.13;9.10;;;;;;;11.11;81.88;101028.41;695836;28;1011;-54
2021/09/20 00:43:52;;;;;;;10.75;9.07;;;;;;;11.07;81.74;101030.16;695360;28;1179;-52
2021/09/20 00:44:13;;;;;;;10.87;9.00;;;;;;;11.06;81.95;101026.69;695579;28;1106;-52
2021/09/20 00:44:33;;;;;;;10.88;8.93;;;;;;;11.03;82.53;101026.66;696083;28;1139;-53
2021/09/20 00:44:54;;;;;;;10.90;9.00;;;;;;;10.96;82.34;101024.91;695484;28;1066;-56
2021/09/20 00:45:14;;;;;;;11.30;9.32;;;;;;;10.91;82.26;101031.91;696170;28;1170;-51
2021/09/20 00:45:35;;;;;;;10.77;9.13;;;;;;;10.95;82.87;101024.94;695423;28;3320;-54
2021/09/20 00:45:55;;;;;;;11.50;9.73;;;;;;;10.97;83.09;101024.06;694280;28;4323;-53
2021/09/20 00:46:16;;;;;;;10.77;9.40;;;;;;;10.91;81.62;101029.31;695331;28;1403;-53
2021/09/20 00:46:37;;;;;;;10.50;9.23;;;;;;;10.84;82.53;101022.31;695886;28;1293;-56
2021/09/20 00:46:57;;;;;;;11.02;9.32;;;;;;;10.82;82.78;101024.06;695754;28;1489;-54
2021/09/20 00:47:17;;;;;;;10.65;9.20;;;;;;;10.88;83.45;101027.56;695595;28;1241;-52
2021/09/20 00:47:38;;;;;;;10.53;9.40;;;;;;;10.96;83.79;101027.53;695190;28;1466;-54
2021/09/20 00:47:58;;;;;;;10.50;9.40;;;;;;;10.96;83.46;101029.28;695869;28;1233;-52
2021/09/20 00:48:19;;;;;;;9.70;8.70;;;;;;;10.92;82.60;101030.16;695399;28;1225;-53
2021/09/20 00:48:39;;;;;;;10.37;9.10;;;;;;;10.86;82.75;101028.44;695309;28;1182;-51
2021/09/20 00:48:59;;;;;;;10.90;9.32;;;;;;;10.85;82.89;101032.75;695503;28;4528;-52
2021/09/20 00:49:20;;;;;;;10.57;9.10;;;;;;;10.93;83.19;101021.44;695790;28;1318;-52
2021/09/20 00:49:42;;;;;;;10.48;8.80;;;;;;;10.90;83.17;101025.78;697233;28;1988;-53
2021/09/20 00:50:03;;;;;;;10.38;8.85;;;;;;;10.83;82.35;101031.91;698222;28;4090;-51
2021/09/20 00:50:24;;;;;;;10.45;9.27;;;;;;;10.77;82.38;101026.66;697257;28;1319;-56
2021/09/20 00:50:44;;;;;;;10.63;9.25;;;;;;;10.76;83.38;101031.88;697364;28;1572;-55
2021/09/20 00:51:05;;;;;;;10.20;9.10;;;;;;;10.76;83.63;101029.28;698024;28;1987;-52
2021/09/20 00:51:25;;;;;;;10.95;9.40;;;;;;;10.82;84.03;101030.16;697129;28;1253;-52
2021/09/20 00:51:46;;;;;;;10.77;9.20;;;;;;;10.89;83.95;101024.03;694858;28;4485;-54
2021/09/20 00:52:06;;;;;;;10.57;9.32;;;;;;;10.83;82.63;101021.44;695970;28;1199;-57
2021/09/20 00:52:27;;;;;;;11.03;9.73;;;;;;;10.87;83.43;101023.19;695704;28;1248;-54
2021/09/20 00:52:47;;;;;;;10.30;8.90;;;;;;;10.90;81.79;101028.41;695716;28;1283;-52
2021/09/20 00:53:07;;;;;;;9.87;8.87;;;;;;;10.79;81.48;101024.94;696171;28;1465;-52
2021/09/20 00:53:28;;;;;;;10.25;9.15;;;;;;;10.71;81.99;101031.91;696316;28;1153;-54
2021/09/20 00:53:48;;;;;;;10.40;9.30;;;;;;;10.63;82.20;101029.25;696331;28;1333;-52
2021/09/20 00:54:09;;;;;;;10.35;9.35;;;;;;;10.60;82.77;101029.28;695350;28;2643;-52
2021/09/20 00:54:30;;;;;;;10.30;9.10;;;;;;;10.62;82.75;101016.19;694267;28;3398;-54
2021/09/20 00:54:51;;;;;;;10.30;9.20;;;;;;;10.61;82.34;101030.16;694503;28;4584;-55
2021/09/20 00:55:12;;;;;;;10.45;9.35;;;;;;;10.65;83.26;101026.69;695371;28;1061;-53
2021/09/20 00:55:33;;;;;;;10.85;9.43;;;;;;;10.64;83.72;101025.78;694514;28;1109;-56
2021/09/20 00:55:54;;;;;;;10.90;9.37;;;;;;;10.67;83.76;101030.16;695268;28;1128;-54
2021/09/20 00:56:17;;;;;;;11.82;9.50;;;;;;;10.71;84.98;101031.91;695658;28;1413;-52
2021/09/20 00:56:38;;;;;;;11.57;9.70;;;;;;;10.72;84.95;101031.03;694856;28;1226;-53
2021/09/20 00:56:59;;;;;;;11.10;9.90;;;;;;;10.70;84.11;101030.16;695853;28;1244;-54
2021/09/20 00:57:20;;;;;;;11.48;9.70;;;;;;;10.74;84.84;101031.91;696044;28;1043;-54
2021/09/20 00:57:43;;;;;;;11.88;9.95;;;;;;;10.75;84.52;101032.78;695036;28;1281;-52
2021/09/20 00:58:03;;;;;;;10.75;9.65;;;;;;;10.79;84.32;101031.91;695275;28;5316;-51
2021/09/20 00:58:24;;;;;;;10.23;9.20;;;;;;;10.74;83.12;101029.28;695823;28;3415;-52
2021/09/20 00:58:45;;;;;;;9.95;8.88;;;;;;;10.75;84.08;101030.16;694253;28;1091;-55
2021/09/20 00:59:06;;;;;;;11.13;9.13;;;;;;;10.66;82.80;101023.16;694980;28;1564;-56
2021/09/20 00:59:27;;;;;;;10.63;9.52;;;;;;;10.58;82.98;101023.19;694899;28;1362;-57
2021/09/20 00:59:48;;;;;;;10.27;9.17;;;;;;;10.45;83.04;101027.50;694928;28;1098;-55
2021/09/20 01:00:09;;;;;;;10.60;9.30;;;;;;;10.40;83.59;101029.25;695455;28;1464;-54
2021/09/20 01:00:31;;;;;;;11.30;9.15;;;;;;;10.41;83.86;101028.38;695972;28;1158;-57
2021/09/20 01:00:56;;;;;;;10.82;9.73;;;;;;;10.45;83.76;101027.50;695231;28;5355;-54
2021/09/20 01:01:16;;;;;;;11.18;9.68;;;;;;;10.56;84.19;101024.91;695207;28;1003;-52
2021/09/20 01:01:37;;;;;;;12.10;9.40;;;;;;;10.49;83.46;101026.63;696372;28;1084;-52
2021/09/20 01:01:57;;;;;;;11.07;9.40;;;;;;;10.47;83.46;101028.41;696592;28;1277;-52
2021/09/20 01:02:17;;;;;;;10.68;9.57;;;;;;;10.54;84.17;101027.53;696116;28;1068;-52
2021/09/20 01:02:38;;;;;;;10.93;9.67;;;;;;;10.53;82.99;101024.91;695126;28;2391;-52
2021/09/20 01:02:58;;;;;;;10.20;9.10;;;;;;;10.48;83.58;101029.25;694438;28;3453;-52
2021/09/20 01:03:19;;;;;;;10.53;9.43;;;;;;;10.54;84.21;101031.91;696239;28;1253;-55
2021/09/20 01:03:40;;;;;;;10.65;9.55;;;;;;;10.69;84.58;101023.19;695473;28;1631;-54
2021/09/20 01:04:01;;;;;;;11.30;9.75;;;;;;;10.64;82.37;101022.31;697274;28;4469;-55
2021/09/20 01:04:21;;;;;;;11.27;9.90;;;;;;;10.57;82.30;101019.69;698156;28;1409;-52
2021/09/20 01:04:41;;;;;;;11.10;9.90;;;;;;;10.58;82.67;101020.56;697921;28;1204;-52
2021/09/20 01:05:03;;;;;;;10.83;9.60;;;;;;;10.60;83.51;101028.41;697889;28;1186;-51
2021/09/20 01:05:24;;;;;;;11.32;9.38;;;;;;;10.63;83.88;101029.25;699003;28;1427;-52
2021/09/20 01:05:44;;;;;;;12.02;9.90;;;;;;;10.60;84.66;101026.66;697891;28;1046;-53
2021/09/20 01:06:04;;;;;;;12.03;9.97;;;;;;;10.52;83.74;101023.16;698438;28;1082;-53
2021/09/20 01:06:25;;;;;;;10.52;9.30;;;;;;;10.54;83.68;101037.13;697381;28;1477;-54
2021/09/20 01:06:46;;;;;;;10.67;9.43;;;;;;;10.61;83.96;101024.94;697661;28;4545;-53
2021/09/20 01:07:06;;;;;;;10.65;9.52;;;;;;;10.66;83.94;101029.28;696794;28;3207;-51
2021/09/20 01:07:26;;;;;;;10.53;9.20;;;;;;;10.78;83.98;101027.56;698320;28;1265;-54
2021/09/20 01:07:47;;;;;;;10.70;9.60;;;;;;;10.88;83.64;101030.19;697878;28;1284;-52
2021/09/20 01:08:07;;;;;;;11.10;9.30;;;;;;;10.84;82.80;101036.28;698336;28;1168;-52
2021/09/20 01:08:27;;;;;;;10.32;8.95;;;;;;;10.71;81.64;101029.28;698381;28;1456;-53
2021/09/20 01:08:48;;;;;;;11.10;9.20;;;;;;;10.68;82.27;101031.91;698108;28;1274;-54
2021/09/20 01:09:08;;;;;;;10.85;9.60;;;;;;;10.64;82.18;101035.38;698129;28;1644;-54
2021/09/20 01:09:29;;;;;;;10.50;9.40;;;;;;;10.71;83.11;101029.28;698694;28;1131;-56
2021/09/20 01:09:49;;;;;;;10.32;9.27;;;;;;;10.76;84.05;101034.50;696549;28;4333;-51
2021/09/20 01:10:11;;;;;;;10.40;9.30;;;;;;;10.74;83.63;101031.91;695673;28;1249;-52
2021/09/20 01:10:31;;;;;;;10.43;9.02;;;;;;;10.72;83.74;101033.66;695704;28;1435;-52
2021/09/20 01:10:52;;;;;;;10.60;9.30;;;;;;;10.78;83.46;101031.03;694858;28;1456;-54
2021/09/20 01:11:13;;;;;;;10.43;9.27;;;;;;;10.72;83.05;101037.13;693303;28;3185;-54
2021/09/20 01:11:34;;;;;;;10.73;9.52;;;;;;;10.63;82.32;101028.41;694909;28;3839;-52
2021/09/20 01:11:54;;;;;;;10.88;9.18;;;;;;;10.60;82.64;101038.88;695555;28;1151;-53
2021/09/20 01:12:15;;;;;;;10.80;9.10;;;;;;;10.60;82.75;101036.25;695030;28;1505;-54
2021/09/20 01:12:36;;;;;;;10.97;9.10;;;;;;;10.51;82.96;101034.50;695323;28;1403;-53
2021/09/20 01:12:56;;;;;;;10.90;9.40;;;;;;;10.49;83.34;101034.47;694523;28;4566;-57
2021/09/20 01:13:16;;;;;;;11.40;9.53;;;;;;;10.54;83.49;101031.91;695586;28;1443;-52
2021/09/20 01:13:37;;;;;;;11.05;9.20;;;;;;;10.57;83.27;101035.38;694877;28;1173;-54
2021/09/20 01:13:57;;;;;;;11.17;9.83;;;;;;;10.57;83.93;101024.03;695350;28;1091;-52
2021/09/20 01:14:18;;;;;;;11.75;9.93;;;;;;;10.50;83.09;101031.00;696085;28;1102;-52
2021/09/20 01:14:38;;;;;;;11.33;9.73;;;;;;;10.47;83.89;101036.25;695428;28;1269;-53
2021/09/20 01:15:02;;;;;;;10.43;9.40;;;;;;;10.55;84.16;101038.88;695930;28;1225;-51
2021/09/20 01:15:22;;;;;;;11.00;9.65;;;;;;;10.56;84.53;101031.03;693043;28;1358;-51
2021/09/20 01:15:42;;;;;;;11.20;10.02;;;;;;;10.49;83.29;101034.47;692161;28;3754;-55
2021/09/20 01:16:03;;;;;;;11.20;10.03;;;;;;;10.45;82.98;101031.88;695090;28;4766;-52
2021/09/20 01:16:27;;;;;;;11.20;9.98;;;;;;;10.49;83.73;101034.47;695215;28;1535;-53
2021/09/20 01:16:47;;;;;;;10.70;9.60;;;;;;;10.53;84.03;101032.75;694990;28;1429;-54
2021/09/20 01:17:08;;;;;;;11.17;9.83;;;;;;;10.48;83.64;101030.16;695676;28;1188;-54
2021/09/20 01:17:28;;;;;;;10.90;9.60;;;;;;;10.54;84.12;101026.66;695373;28;1121;-53
2021/09/20 01:17:48;;;;;;;11.02;9.55;;;;;;;10.60;84.27;101037.13;695322;28;1414;-52
2021/09/20 01:18:09;;;;;;;10.67;9.57;;;;;;;10.66;84.16;101033.63;695725;28;1094;-53
2021/09/20 01:18:29;;;;;;;10.85;9.52;;;;;;;10.70;84.27;101030.16;695378;28;1242;-53
2021/09/20 01:18:49;;;;;;;10.60;9.50;;;;;;;10.73;83.87;101038.03;695568;28;4446;-53
2021/09/20 01:19:10;;;;;;;10.95;9.50;;;;;;;10.79;83.79;101034.53;699171;28;1108;-51
2021/09/20 01:19:31;;;;;;;10.33;9.13;;;;;;;10.85;83.65;101034.53;698254;28;1142;-53
2021/09/20 01:19:51;;;;;;;10.13;9.13;;;;;;;10.75;82.02;101030.16;698424;28;3539;-53
2021/09/20 01:20:12;;;;;;;10.50;9.40;;;;;;;10.73;83.05;101031.03;697284;28;1355;-55
2021/09/20 01:20:32;;;;;;;10.43;9.32;;;;;;;10.74;83.41;101042.34;699140;28;1185;-56
2021/09/20 01:20:53;;;;;;;11.90;9.20;;;;;;;10.72;83.37;101031.91;696878;28;1187;-55
2021/09/20 01:21:15;;;;;;;11.67;9.43;;;;;;;10.72;83.15;101026.66;697359;28;1191;-54
2021/09/20 01:21:36;;;;;;;10.90;9.60;;;;;;;10.75;83.59;101030.16;694289;28;1400;-57
2021/09/20 01:22:01;;;;;;;11.27;9.87;;;;;;;10.76;83.19;101030.16;692227;28;4397;-55
2021/09/20 01:22:22;;;;;;;10.50;9.40;;;;;;;10.65;82.63;101034.53;695564;28;1373;-52
2021/09/20 01:22:49;;;;;;;10.90;9.30;;;;;;;10.61;83.76;101032.78;694896;28;1198;-53
2021/09/20 01:23:10;;;;;;;10.65;9.43;;;;;;;10.63;83.68;101029.25;695213;28;1135;-53
2021/09/20 01:23:30;;;;;;;11.25;9.60;;;;;;;10.63;83.25;101033.63;694804;28;1274;-53
2021/09/20 01:23:51;;;;;;;11.10;9.50;;;;;;;10.57;82.60;101037.97;694912;28;1372;-56
2021/09/20 01:24:11;;;;;;;10.85;9.75;;;;;;;10.55;84.27;101036.25;695356;28;3727;-54
2021/09/20 01:24:32;;;;;;;10.87;9.77;;;;;;;10.51;84.17;101032.75;694886;28;1447;-54
2021/09/20 01:24:54;;;;;;;10.70;9.60;;;;;;;10.52;83.70;101037.13;694666;28;4444;-54
2021/09/20 01:25:15;;;;;;;10.80;9.65;;;;;;;10.55;83.62;101023.19;694088;28;1088;-56
2021/09/20 01:25:35;;;;;;;11.25;9.75;;;;;;;10.60;83.89;101036.25;693361;28;1166;-54
2021/09/20 01:25:56;;;;;;;10.77;9.60;;;;;;;10.59;84.08;101034.50;694223;28;1430;-52
2021/09/20 01:26:16;;;;;;;10.55;9.45;;;;;;;10.70;84.04;101032.75;694664;28;1105;-52
2021/09/20 01:26:36;;;;;;;11.67;9.80;;;;;;;10.60;84.02;101034.50;694879;28;1138;-53
2021/09/20 01:27:02;;;;;;;11.57;10.18;;;;;;;10.47;82.74;101038.84;695855;28;1273;-53
2021/09/20 01:27:23;;;;;;;12.02;9.80;;;;;;;10.40;82.68;101037.09;692012;28;1263;-52
2021/09/20 01:27:43;;;;;;;11.45;9.90;;;;;;;10.37;83.53;101027.50;692385;28;1373;-52
2021/09/20 01:28:04;;;;;;;10.60;9.50;;;;;;;10.43;83.78;101034.47;694412;28;4276;-52
2021/09/20 01:28:25;;;;;;;10.88;9.77;;;;;;;10.40;83.62;101037.09;693986;28;3072;-52
2021/09/20 01:28:45;;;;;;;10.87;9.70;;;;;;;10.39;83.95;101041.44;694656;28;2408;-53
2021/09/20 01:29:07;;;;;;;11.63;9.80;;;;;;;10.51;84.79;101043.22;695146;28;1339;-52
2021/09/20 01:29:28;;;;;;;10.90;9.43;;;;;;;10.62;84.46;101037.13;697536;28;1446;-53
2021/09/20 01:29:51;;;;;;;11.35;9.30;;;;;;;10.54;83.76;101040.59;697765;28;1144;-55
2021/09/20 01:30:12;;;;;;;11.00;9.80;;;;;;;10.49;83.59;101038.84;697474;28;1140;-54
2021/09/20 01:30:32;;;;;;;10.63;9.52;;;;;;;10.45;83.23;101043.19;696972;28;1086;-55
2021/09/20 01:30:53;;;;;;;11.03;9.60;;;;;;;10.40;83.07;101039.72;696090;28;4573;-53
2021/09/20 01:31:13;;;;;;;11.05;9.85;;;;;;;10.35;83.13;101038.81;696667;28;1913;-55
2021/09/20 01:31:34;;;;;;;10.90;9.80;;;;;;;10.30;83.23;101032.66;697789;28;1150;-54
2021/09/20 01:31:54;;;;;;;10.82;9.73;;;;;;;10.27;83.97;101037.91;697766;28;1202;-51
2021/09/20 01:32:14;;;;;;;10.47;9.37;;;;;;;10.31;84.71;101039.66;697351;28;1190;-55
2021/09/20 01:32:35;;;;;;;11.00;9.73;;;;;;;10.29;84.66;101037.03;697389;28;1150;-54
2021/09/20 01:32:56;;;;;;;11.20;10.00;;;;;;;10.26;84.14;101034.44;697239;28;3912;-54
2021/09/20 01:33:16;;;;;;;11.50;10.15;;;;;;;10.26;84.54;101036.16;698065;28;1309;-53
2021/09/20 01:33:36;;;;;;;11.07;9.87;;;;;;;10.23;84.76;101031.78;697916;28;1453;-54
2021/09/20 01:33:57;;;;;;;10.85;9.65;;;;;;;10.20;84.97;101035.28;696364;28;4471;-52
2021/09/20 01:34:17;;;;;;;10.90;9.47;;;;;;;10.25;84.99;101031.81;697357;28;1734;-52
2021/09/20 01:34:38;;;;;;;11.90;9.95;;;;;;;10.32;85.55;101033.56;697632;28;1224;-53
2021/09/20 01:34:58;;;;;;;11.63;9.63;;;;;;;10.25;85.09;101029.19;697539;28;1165;-53
2021/09/20 01:35:19;;;;;;;10.47;9.37;;;;;;;10.22;84.72;101028.31;698005;28;1165;-56
2021/09/20 01:35:40;;;;;;;10.82;9.65;;;;;;;10.31;85.11;101026.59;697916;28;1388;-53
2021/09/20 01:36:00;;;;;;;11.05;9.90;;;;;;;10.37;85.01;101031.84;698123;28;1186;-54
2021/09/20 01:36:21;;;;;;;11.23;10.07;;;;;;;10.37;85.00;101034.47;697960;28;1100;-52
2021/09/20 01:36:41;;;;;;;11.88;9.98;;;;;;;10.33;84.88;101030.09;698259;28;1217;-56
2021/09/20 01:37:02;;;;;;;12.03;9.73;;;;;;;10.26;84.35;101025.69;697884;28;4565;-53
2021/09/20 01:37:23;;;;;;;11.35;9.70;;;;;;;10.21;84.24;101033.53;697693;28;3842;-53
2021/09/20 01:37:43;;;;;;;11.32;10.07;;;;;;;10.25;85.91;101037.03;698028;28;1254;-52